Flight Track Log - Related Links

Times and Time Zones

All times are in EDT time to prevent confusion due to time zone crossing. See the TAM3381 flight status page for this flight to view local times or setup timezone preferences in your user account.

Time Position Orientation Groundspeed Altitude Reporting Facility
EDT Latitude Longitude Course Direction KTS MPH feet Rate Location/Type
Thu 06:05:41 PM -19.6310 -42.1140 291° West  Level FlightAware ADS-B
Thu 06:05:52 PM -19.6290 -42.3340 271° West 1,539 Level FlightAware ADS-B
Thu 06:08:00 PM -19.8088 -42.3844 195° South  Level Estimated
Thu 06:09:00 PM -19.8931 -42.4081 195° South  Level Estimated
Thu 06:10:00 PM -19.9774 -42.4317 195° South  Level Estimated
Thu 06:11:00 PM -20.0617 -42.4554 195° South  Level Estimated
Thu 06:12:00 PM -20.1459 -42.4792 195° South  Level Estimated
Thu 06:13:00 PM -20.2302 -42.5029 195° South  Level Estimated
Thu 06:13:21 PM -19.8650 -43.8510 195° South 337 388 11,800  Level FlightAware ADS-B
Thu 06:13:41 PM -19.8960 -43.8380 158° South 358 412 12,400 2,323 Climbing FlightAware ADS-B
Thu 06:14:23 PM -19.9670 -43.8300 174° South 373 429 14,200 2,625 Climbing FlightAware ADS-B
Thu 06:15:01 PM -20.0330 -43.8230 174° South 379 436 15,900 2,643 Climbing FlightAware ADS-B
Thu 06:15:47 PM -20.1110 -43.8420 193° South 385 443 17,900 2,651 Climbing FlightAware ADS-B
Thu 06:16:27 PM -20.1760 -43.8770 207° Southwest 383 441 19,700 2,561 Climbing FlightAware ADS-B
Thu 06:17:09 PM -20.2420 -43.9110 206° Southwest 385 443 21,400 2,023 Climbing FlightAware ADS-B
Thu 06:17:53 PM -20.3170 -43.9430 202° Southwest 399 459 22,600 1,650 Climbing FlightAware ADS-B
Thu 06:18:29 PM -20.3810 -43.9660 199° South 412 474 23,600 1,537 Climbing FlightAware ADS-B
Thu 06:19:15 PM -20.4720 -43.9770 186° South 430 495 24,700 1,705 Climbing FlightAware ADS-B
Thu 06:19:57 PM -20.5550 -43.9850 185° South 430 495 26,100 2,458 Climbing FlightAware ADS-B
Thu 06:20:38 PM -20.6350 -43.9930 185° South 414 476 28,100 2,659 Climbing FlightAware ADS-B
Thu 06:21:25 PM -20.7230 -44.0020 185° South 393 452 30,000 1,310 Climbing FlightAware ADS-B
Thu 06:22:05 PM -20.7960 -44.0090 185° South 391 450 30,000  Level FlightAware ADS-B
Thu 06:22:58 PM -20.8710 -44.0130 183° South 398 458 30,000  Level FlightAware ADS-B
Thu 06:23:41 PM -20.9740 -43.9980 172° South 406 467 30,000  Level FlightAware ADS-B
Thu 06:24:21 PM -21.0440 -43.9830 169° South 406 467 30,000  Level FlightAware ADS-B
Thu 06:25:07 PM -21.1310 -43.9640 168° South 406 467 30,000  Level FlightAware ADS-B
Thu 06:25:44 PM -21.1840 -43.9520 168° South 406 467 30,000  Level FlightAware ADS-B
Thu 06:26:27 PM -21.2780 -43.9320 169° South 405 466 30,000 -68 Level FlightAware ADS-B
Thu 06:27:12 PM -21.3600 -43.9140 168° South 405 466 29,900  Descending FlightAware ADS-B
Thu 06:28:02 PM -21.3280 -43.9210 348° North 405 466 30,000 -1,500 Climbing FlightAware ADS-B
Thu 06:28:44 PM -21.5280 -43.8780 169° South 408 470 27,600 -1,810 Descending FlightAware ADS-B
Thu 06:29:58 PM -21.5890 -43.8650 169° South 406 467 26,500 -1,052 Descending FlightAware ADS-B
Thu 06:30:21 PM -21.6220 -43.8570 167° South 404 465 25,900 -1,667 Descending FlightAware ADS-B
Thu 06:31:10 PM -21.7130 -43.8380 169° South 394 453 24,500 -1,129 Descending FlightAware ADS-B
Thu 06:31:46 PM -21.7440 -43.8310 168° South 380 437 24,300 -1,443 Descending FlightAware ADS-B
Thu 06:32:29 PM -21.8570 -43.8060 168° South 362 417 22,600 -2,235 Descending FlightAware ADS-B
Thu 06:33:28 PM -21.9500 -43.7860 169° South 352 405 20,500 -2,100 Descending FlightAware ADS-B
Thu 06:34:09 PM -22.0150 -43.7720 169° South 349 402 19,100 -1,760 Descending FlightAware ADS-B
Thu 06:34:43 PM -22.0650 -43.7530 161° South 348 400 18,300 -1,529 Descending FlightAware ADS-B
Thu 06:35:51 PM -22.1630 -43.6890 149° Southeast 331 381 16,500 -1,200 Descending FlightAware ADS-B
Thu 06:36:28 PM -22.1770 -43.6800 149° Southeast 326 375 16,200 -2,378 Descending FlightAware ADS-B
Thu 06:37:42 PM -22.3420 -43.5710 149° Southeast 307 353 12,100 -2,296 Descending FlightAware ADS-B
Thu 06:38:23 PM -22.3940 -43.5440 154° Southeast 311 358 11,800 -646 Descending FlightAware ADS-B
Thu 06:38:47 PM -22.4210 -43.5490 190° South 305 351 11,400 -1,379 Descending FlightAware ADS-B
Thu 06:39:50 PM -22.5110 -43.5790 197° South 294 338 9,800 -1,448 Descending FlightAware ADS-B
Thu 06:40:14 PM -22.5380 -43.5880 197° South 289 333 9,300 -1,129 Descending FlightAware ADS-B
Thu 06:41:15 PM -22.6120 -43.6130 197° South 289 333 8,200 -1,531 Descending FlightAware ADS-B
Thu 06:41:52 PM -22.6580 -43.5910 156° South 269 310 6,800 -1,412 Descending FlightAware ADS-B
Thu 06:42:40 PM -22.6880 -43.5380 122° Southeast 228 262 6,200 -1,105 Descending FlightAware ADS-B
Thu 06:44:24 PM -22.7150 -43.4490 108° East 188 216 4,000 -1,101 Descending FlightAware ADS-B
Thu 06:45:29 PM -22.7200 -43.4040 97° East 181 208 3,100 -1,146 Descending FlightAware ADS-B
Thu 06:45:53 PM -22.7380 -43.3760 125° Southeast 179 206 2,300 -1,320 Descending FlightAware ADS-B
Thu 06:46:19 PM -22.7480 -43.3610 126° Southeast 173 199 2,000 -632 Descending FlightAware ADS-B
Thu 06:46:50 PM -22.7600 -43.3430 126° Southeast 144 166 1,700 -655 Descending FlightAware ADS-B
Thu 06:47:14 PM -22.7700 -43.3270 124° Southeast 137 158 1,400 -493 Descending FlightAware ADS-B
Thu 06:48:03 PM -22.7870 -43.3020 126° Southeast 138 159 1,100 -533 Descending FlightAware ADS-B
Thu 06:48:44 PM -22.8010 -43.2800 125° Southeast 134 154 600 -732 Descending FlightAware ADS-B
Thu 06:50:59 PM -22.8200 -43.2490 103° East -267 Descending FlightAware ADS-B
Thu 06:51:00 PM -22.8089 -43.2436 103° East  Level Estimated
Thu 06:51:30 PM -22.8210 -43.2490 180° South  Level FlightAware ADS-B
Thu 06:52:35 PM -22.8190 -43.2460 54° Northeast  Level FlightAware ADS-B
Thu 06:53:15 PM -22.8180 -43.2450 43° Northeast  Level FlightAware ADS-B
Thu 06:55:47 PM -22.8160 -43.2430 43° Northeast  Level FlightAware ADS-B
Thu 06:58:00 PM -22.8089 -43.2436 355° North  Level Estimated
Thu 06:59:00 PM -22.8089 -43.2436 137° Southeast  Level Estimated

Login

Don't have an account? Register now (free) for customized features, flight alerts, and more!